sensor_id;sensor_type;location;lat;lon;timestamp;temperature;humidity
12588;DHT22;6359;51.450;7.346;2022-12-11T00:09:37;0.10;99.90
12588;DHT22;6359;51.450;7.346;2022-12-11T00:14:32;0.00;99.90
12588;DHT22;6359;51.450;7.346;2022-12-11T00:26:49;0.00;99.90
12588;DHT22;6359;51.450;7.346;2022-12-11T00:39:06;-0.20;99.90
12588;DHT22;6359;51.450;7.346;2022-12-11T00:41:33;-0.10;99.90
12588;DHT22;6359;51.450;7.346;2022-12-11T00:44:02;-0.20;99.90
12588;DHT22;6359;51.450;7.346;2022-12-11T00:48:56;-0.10;99.90
12588;DHT22;6359;51.450;7.346;2022-12-11T00:56:20;1.60;99.90
12588;DHT22;6359;51.450;7.346;2022-12-11T00:58:48;-0.20;99.90
12588;DHT22;6359;51.450;7.346;2022-12-11T01:01:18;-0.20;99.90
12588;DHT22;6359;51.450;7.346;2022-12-11T01:06:14;-0.20;99.90
12588;DHT22;6359;51.450;7.346;2022-12-11T01:11:10;-0.20;99.90
12588;DHT22;6359;51.450;7.346;2022-12-11T01:13:37;-0.20;99.90
12588;DHT22;6359;51.450;7.346;2022-12-11T01:16:06;-0.20;99.90
12588;DHT22;6359;51.450;7.346;2022-12-11T01:18:35;-0.20;99.90
12588;DHT22;6359;51.450;7.346;2022-12-11T01:21:05;-0.20;99.90
12588;DHT22;6359;51.450;7.346;2022-12-11T01:26:04;-0.10;99.90
12588;DHT22;6359;51.450;7.346;2022-12-11T01:35:54;-0.20;99.90
12588;DHT22;6359;51.450;7.346;2022-12-11T01:40:50;-0.10;99.90
12588;DHT22;6359;51.450;7.346;2022-12-11T01:45:47;-0.20;99.90
12588;DHT22;6359;51.450;7.346;2022-12-11T01:48:17;-0.20;99.90
12588;DHT22;6359;51.450;7.346;2022-12-11T01:50:48;-0.20;99.90
12588;DHT22;6359;51.450;7.346;2022-12-11T01:53:21;-0.10;99.90
12588;DHT22;6359;51.450;7.346;2022-12-11T01:55:51;-0.10;99.90
12588;DHT22;6359;51.450;7.346;2022-12-11T01:58:20;0.00;99.90
12588;DHT22;6359;51.450;7.346;2022-12-11T02:08:09;0.10;99.90
12588;DHT22;6359;51.450;7.346;2022-12-11T02:10:48;-0.10;99.90
12588;DHT22;6359;51.450;7.346;2022-12-11T02:13:22;-0.10;99.90
12588;DHT22;6359;51.450;7.346;2022-12-11T02:15:56;-0.10;99.90
12588;DHT22;6359;51.450;7.346;2022-12-11T02:18:30;-0.10;99.90
12588;DHT22;6359;51.450;7.346;2022-12-11T02:21:05;-0.10;99.90
12588;DHT22;6359;51.450;7.346;2022-12-11T02:23:57;-0.10;99.90
12588;DHT22;6359;51.450;7.346;2022-12-11T02:26:43;-0.10;99.90
12588;DHT22;6359;51.450;7.346;2022-12-11T02:29:18;-0.10;99.90
12588;DHT22;6359;51.450;7.346;2022-12-11T02:31:50;0.00;99.90
12588;DHT22;6359;51.450;7.346;2022-12-11T02:34:22;0.00;99.90
12588;DHT22;6359;51.450;7.346;2022-12-11T02:36:53;0.00;99.90
12588;DHT22;6359;51.450;7.346;2022-12-11T02:39:22;0.10;99.90
12588;DHT22;6359;51.450;7.346;2022-12-11T02:41:51;-0.20;99.90
12588;DHT22;6359;51.450;7.346;2022-12-11T02:44:23;-0.20;99.90
12588;DHT22;6359;51.450;7.346;2022-12-11T02:46:51;0.20;99.90
12588;DHT22;6359;51.450;7.346;2022-12-11T02:49:20;0.00;99.90
12588;DHT22;6359;51.450;7.346;2022-12-11T02:51:48;0.00;99.90
12588;DHT22;6359;51.450;7.346;2022-12-11T02:54:18;0.00;99.90
12588;DHT22;6359;51.450;7.346;2022-12-11T02:56:51;0.00;99.90
12588;DHT22;6359;51.450;7.346;2022-12-11T02:59:25;0.00;99.90
12588;DHT22;6359;51.450;7.346;2022-12-11T03:06:52;0.00;99.90
12588;DHT22;6359;51.450;7.346;2022-12-11T03:09:19;-0.60;99.90
12588;DHT22;6359;51.450;7.346;2022-12-11T03:16:49;0.00;99.90
12588;DHT22;6359;51.450;7.346;2022-12-11T03:19:26;0.10;99.90
12588;DHT22;6359;51.450;7.346;2022-12-11T03:21:58;0.10;99.90
12588;DHT22;6359;51.450;7.346;2022-12-11T03:24:28;0.20;99.90
12588;DHT22;6359;51.450;7.346;2022-12-11T03:26:58;0.20;99.90
12588;DHT22;6359;51.450;7.346;2022-12-11T03:29:31;0.10;99.90
12588;DHT22;6359;51.450;7.346;2022-12-11T03:32:05;0.20;99.90
12588;DHT22;6359;51.450;7.346;2022-12-11T03:34:40;0.20;99.90
12588;DHT22;6359;51.450;7.346;2022-12-11T03:37:09;0.30;99.90
12588;DHT22;6359;51.450;7.346;2022-12-11T03:39:39;0.20;99.90
12588;DHT22;6359;51.450;7.346;2022-12-11T03:42:10;0.30;99.90
12588;DHT22;6359;51.450;7.346;2022-12-11T03:44:38;0.10;99.90
12588;DHT22;6359;51.450;7.346;2022-12-11T03:47:09;0.20;99.90
12588;DHT22;6359;51.450;7.346;2022-12-11T03:49:39;0.10;99.90
12588;DHT22;6359;51.450;7.346;2022-12-11T03:52:08;0.20;99.90
12588;DHT22;6359;51.450;7.346;2022-12-11T03:54:37;0.10;99.90
12588;DHT22;6359;51.450;7.346;2022-12-11T03:57:07;0.10;99.90
12588;DHT22;6359;51.450;7.346;2022-12-11T04:04:36;0.10;99.90
12588;DHT22;6359;51.450;7.346;2022-12-11T04:07:04;0.20;99.90
12588;DHT22;6359;51.450;7.346;2022-12-11T04:14:26;0.40;99.90
12588;DHT22;6359;51.450;7.346;2022-12-11T04:19:59;0.20;99.90
12588;DHT22;6359;51.450;7.346;2022-12-11T04:22:45;0.10;99.90
12588;DHT22;6359;51.450;7.346;2022-12-11T04:25:29;-0.40;99.90
12588;DHT22;6359;51.450;7.346;2022-12-11T04:30:24;0.30;99.90
12588;DHT22;6359;51.450;7.346;2022-12-11T04:32:52;0.30;99.90
12588;DHT22;6359;51.450;7.346;2022-12-11T04:35:21;0.40;99.90
12588;DHT22;6359;51.450;7.346;2022-12-11T04:37:48;0.30;99.90
12588;DHT22;6359;51.450;7.346;2022-12-11T04:40:16;0.30;99.90
12588;DHT22;6359;51.450;7.346;2022-12-11T04:45:11;0.00;99.90
12588;DHT22;6359;51.450;7.346;2022-12-11T04:47:39;0.10;99.90
12588;DHT22;6359;51.450;7.346;2022-12-11T04:50:08;0.20;99.90
12588;DHT22;6359;51.450;7.346;2022-12-11T04:52:37;0.20;99.90
12588;DHT22;6359;51.450;7.346;2022-12-11T04:55:04;0.30;99.90
12588;DHT22;6359;51.450;7.346;2022-12-11T05:04:53;0.20;99.90
12588;DHT22;6359;51.450;7.346;2022-12-11T05:09:49;0.20;99.90
12588;DHT22;6359;51.450;7.346;2022-12-11T05:27:00;0.30;99.90
12588;DHT22;6359;51.450;7.346;2022-12-11T05:44:12;0.30;99.90
12588;DHT22;6359;51.450;7.346;2022-12-11T05:46:39;0.50;99.90
12588;DHT22;6359;51.450;7.346;2022-12-11T05:51:33;0.10;99.90
12588;DHT22;6359;51.450;7.346;2022-12-11T05:54:01;0.30;99.90
12588;DHT22;6359;51.450;7.346;2022-12-11T05:56:29;0.30;99.90
12588;DHT22;6359;51.450;7.346;2022-12-11T05:58:58;0.40;99.90
12588;DHT22;6359;51.450;7.346;2022-12-11T06:01:28;0.40;99.90
12588;DHT22;6359;51.450;7.346;2022-12-11T06:03:56;0.40;99.90
12588;DHT22;6359;51.450;7.346;2022-12-11T06:08:52;0.00;99.90
12588;DHT22;6359;51.450;7.346;2022-12-11T06:11:19;0.40;99.90
12588;DHT22;6359;51.450;7.346;2022-12-11T06:18:43;0.50;99.90
12588;DHT22;6359;51.450;7.346;2022-12-11T06:21:11;0.50;99.90
12588;DHT22;6359;51.450;7.346;2022-12-11T06:23:39;0.50;99.90
12588;DHT22;6359;51.450;7.346;2022-12-11T06:26:07;0.50;99.90
12588;DHT22;6359;51.450;7.346;2022-12-11T06:36:00;0.40;99.90
12588;DHT22;6359;51.450;7.346;2022-12-11T06:43:22;0.20;99.90
12588;DHT22;6359;51.450;7.346;2022-12-11T06:53:13;0.40;99.90
12588;DHT22;6359;51.450;7.346;2022-12-11T06:58:08;0.40;99.90
12588;DHT22;6359;51.450;7.346;2022-12-11T07:00:36;0.40;99.90
12588;DHT22;6359;51.450;7.346;2022-12-11T07:03:04;0.40;99.90
12588;DHT22;6359;51.450;7.346;2022-12-11T07:05:31;0.40;99.90
12588;DHT22;6359;51.450;7.346;2022-12-11T07:10:27;0.40;99.90
12588;DHT22;6359;51.450;7.346;2022-12-11T07:22:43;0.70;99.90
12588;DHT22;6359;51.450;7.346;2022-12-11T07:25:10;0.30;99.90
12588;DHT22;6359;51.450;7.346;2022-12-11T07:27:38;0.40;99.90
12588;DHT22;6359;51.450;7.346;2022-12-11T07:30:07;0.40;99.90
12588;DHT22;6359;51.450;7.346;2022-12-11T07:42:23;0.20;99.90
12588;DHT22;6359;51.450;7.346;2022-12-11T07:44:52;0.60;99.90
12588;DHT22;6359;51.450;7.346;2022-12-11T07:47:19;0.40;99.90
12588;DHT22;6359;51.450;7.346;2022-12-11T07:49:47;0.40;99.90
12588;DHT22;6359;51.450;7.346;2022-12-11T07:57:08;0.50;99.90
12588;DHT22;6359;51.450;7.346;2022-12-11T08:02:03;0.50;99.90
12588;DHT22;6359;51.450;7.346;2022-12-11T08:09:24;0.50;99.90
12588;DHT22;6359;51.450;7.346;2022-12-11T08:11:51;0.70;99.90
12588;DHT22;6359;51.450;7.346;2022-12-11T08:14:19;0.30;99.90
12588;DHT22;6359;51.450;7.346;2022-12-11T08:16:46;1.10;99.90
12588;DHT22;6359;51.450;7.346;2022-12-11T08:19:14;0.70;99.90
12588;DHT22;6359;51.450;7.346;2022-12-11T08:29:04;0.40;99.90
12588;DHT22;6359;51.450;7.346;2022-12-11T08:31:31;0.70;99.90
12588;DHT22;6359;51.450;7.346;2022-12-11T08:36:26;0.60;99.90
12588;DHT22;6359;51.450;7.346;2022-12-11T08:38:53;0.40;99.90
12588;DHT22;6359;51.450;7.346;2022-12-11T08:41:22;0.70;99.90
12588;DHT22;6359;51.450;7.346;2022-12-11T08:43:49;0.70;99.90
12588;DHT22;6359;51.450;7.346;2022-12-11T08:46:20;0.80;99.90
12588;DHT22;6359;51.450;7.346;2022-12-11T08:51:16;0.50;99.90
12588;DHT22;6359;51.450;7.346;2022-12-11T08:53:44;0.80;99.90
12588;DHT22;6359;51.450;7.346;2022-12-11T08:56:13;0.90;99.90
12588;DHT22;6359;51.450;7.346;2022-12-11T08:58:41;1.10;99.90
12588;DHT22;6359;51.450;7.346;2022-12-11T09:01:09;0.90;99.90
12588;DHT22;6359;51.450;7.346;2022-12-11T09:03:37;0.90;99.90
12588;DHT22;6359;51.450;7.346;2022-12-11T09:08:32;1.40;99.90
12588;DHT22;6359;51.450;7.346;2022-12-11T09:11:05;1.10;99.90
12588;DHT22;6359;51.450;7.346;2022-12-11T09:13:32;1.20;99.90
12588;DHT22;6359;51.450;7.346;2022-12-11T09:20:58;1.00;99.90
12588;DHT22;6359;51.450;7.346;2022-12-11T09:28:22;1.00;99.90
12588;DHT22;6359;51.450;7.346;2022-12-11T09:30:49;1.10;99.90
12588;DHT22;6359;51.450;7.346;2022-12-11T09:33:16;1.00;99.90
12588;DHT22;6359;51.450;7.346;2022-12-11T09:40:41;0.90;99.90
12588;DHT22;6359;51.450;7.346;2022-12-11T09:43:17;1.10;99.90
12588;DHT22;6359;51.450;7.346;2022-12-11T09:45:47;1.10;99.90
12588;DHT22;6359;51.450;7.346;2022-12-11T09:48:19;1.10;99.90
12588;DHT22;6359;51.450;7.346;2022-12-11T09:50:49;1.20;99.90
12588;DHT22;6359;51.450;7.346;2022-12-11T09:53:22;1.20;99.90
12588;DHT22;6359;51.450;7.346;2022-12-11T09:55:56;1.10;99.90
12588;DHT22;6359;51.450;7.346;2022-12-11T09:58:30;1.20;99.90
12588;DHT22;6359;51.450;7.346;2022-12-11T10:01:04;1.20;99.90
12588;DHT22;6359;51.450;7.346;2022-12-11T10:04:02;1.20;99.90
12588;DHT22;6359;51.450;7.346;2022-12-11T10:06:35;1.20;99.90
12588;DHT22;6359;51.450;7.346;2022-12-11T10:09:12;1.40;99.90
12588;DHT22;6359;51.450;7.346;2022-12-11T10:11:57;1.40;99.90
12588;DHT22;6359;51.450;7.346;2022-12-11T10:14:38;1.10;99.90
12588;DHT22;6359;51.450;7.346;2022-12-11T10:17:16;1.20;99.90
12588;DHT22;6359;51.450;7.346;2022-12-11T10:22:17;1.10;99.90
12588;DHT22;6359;51.450;7.346;2022-12-11T10:24:49;0.20;99.90
12588;DHT22;6359;51.450;7.346;2022-12-11T10:27:21;1.30;99.90
12588;DHT22;6359;51.450;7.346;2022-12-11T10:29:55;1.30;99.90
12588;DHT22;6359;51.450;7.346;2022-12-11T10:32:34;1.20;99.90
12588;DHT22;6359;51.450;7.346;2022-12-11T10:35:06;1.20;99.90
12588;DHT22;6359;51.450;7.346;2022-12-11T10:37:33;1.10;99.90
12588;DHT22;6359;51.450;7.346;2022-12-11T10:44:56;1.30;99.90
12588;DHT22;6359;51.450;7.346;2022-12-11T10:49:54;1.30;99.90
12588;DHT22;6359;51.450;7.346;2022-12-11T10:52:24;1.40;99.90
12588;DHT22;6359;51.450;7.346;2022-12-11T10:54:58;1.20;99.90
12588;DHT22;6359;51.450;7.346;2022-12-11T10:57:28;1.20;99.90
12588;DHT22;6359;51.450;7.346;2022-12-11T11:02:25;1.20;99.90
12588;DHT22;6359;51.450;7.346;2022-12-11T11:04:56;1.10;99.90
12588;DHT22;6359;51.450;7.346;2022-12-11T11:07:25;1.30;99.90
12588;DHT22;6359;51.450;7.346;2022-12-11T11:10:05;1.40;99.90
12588;DHT22;6359;51.450;7.346;2022-12-11T11:12:41;1.30;99.90
12588;DHT22;6359;51.450;7.346;2022-12-11T11:15:12;1.30;99.90
12588;DHT22;6359;51.450;7.346;2022-12-11T11:17:43;1.40;99.90
12588;DHT22;6359;51.450;7.346;2022-12-11T11:20:15;1.00;99.90
12588;DHT22;6359;51.450;7.346;2022-12-11T11:22:45;1.10;99.90
12588;DHT22;6359;51.450;7.346;2022-12-11T11:25:18;1.00;99.90
12588;DHT22;6359;51.450;7.346;2022-12-11T11:27:50;1.30;99.90
12588;DHT22;6359;51.450;7.346;2022-12-11T11:30:21;1.00;99.90
12588;DHT22;6359;51.450;7.346;2022-12-11T11:32:50;0.90;99.90
12588;DHT22;6359;51.450;7.346;2022-12-11T11:35:21;0.80;99.90
12588;DHT22;6359;51.450;7.346;2022-12-11T11:37:55;1.20;99.90
12588;DHT22;6359;51.450;7.346;2022-12-11T11:40:27;1.10;99.90
12588;DHT22;6359;51.450;7.346;2022-12-11T11:43:04;4.40;99.90
12588;DHT22;6359;51.450;7.346;2022-12-11T11:45:39;1.30;99.90
12588;DHT22;6359;51.450;7.346;2022-12-11T11:48:18;1.40;99.90
12588;DHT22;6359;51.450;7.346;2022-12-11T11:50:51;1.30;99.90
12588;DHT22;6359;51.450;7.346;2022-12-11T11:53:21;1.30;99.90
12588;DHT22;6359;51.450;7.346;2022-12-11T11:55:56;1.20;99.90
12588;DHT22;6359;51.450;7.346;2022-12-11T11:58:36;1.20;99.90
12588;DHT22;6359;51.450;7.346;2022-12-11T12:01:11;1.20;99.90
12588;DHT22;6359;51.450;7.346;2022-12-11T12:03:39;1.30;99.90
12588;DHT22;6359;51.450;7.346;2022-12-11T12:06:14;1.30;99.90
12588;DHT22;6359;51.450;7.346;2022-12-11T12:08:53;1.20;99.90
12588;DHT22;6359;51.450;7.346;2022-12-11T12:11:27;1.20;99.90
12588;DHT22;6359;51.450;7.346;2022-12-11T12:14:07;1.30;99.90
12588;DHT22;6359;51.450;7.346;2022-12-11T12:16:41;1.40;99.90
12588;DHT22;6359;51.450;7.346;2022-12-11T12:19:19;1.40;99.90
12588;DHT22;6359;51.450;7.346;2022-12-11T12:21:51;1.70;99.90
12588;DHT22;6359;51.450;7.346;2022-12-11T12:24:28;1.30;99.90
12588;DHT22;6359;51.450;7.346;2022-12-11T12:27:12;1.40;99.90
12588;DHT22;6359;51.450;7.346;2022-12-11T12:29:45;1.70;99.90
12588;DHT22;6359;51.450;7.346;2022-12-11T12:32:24;1.40;99.90
12588;DHT22;6359;51.450;7.346;2022-12-11T12:35:04;1.40;99.90
12588;DHT22;6359;51.450;7.346;2022-12-11T12:37:45;1.30;99.90
12588;DHT22;6359;51.450;7.346;2022-12-11T12:40:19;1.40;99.90
12588;DHT22;6359;51.450;7.346;2022-12-11T12:42:53;1.40;99.90
12588;DHT22;6359;51.450;7.346;2022-12-11T12:45:28;1.50;99.90
12588;DHT22;6359;51.450;7.346;2022-12-11T12:47:55;1.40;99.90
12588;DHT22;6359;51.450;7.346;2022-12-11T12:50:24;1.40;99.90
12588;DHT22;6359;51.450;7.346;2022-12-11T12:52:54;1.40;99.90
12588;DHT22;6359;51.450;7.346;2022-12-11T12:55:23;1.40;99.90
12588;DHT22;6359;51.450;7.346;2022-12-11T12:57:53;1.50;99.90
12588;DHT22;6359;51.450;7.346;2022-12-11T13:00:29;1.60;99.90
12588;DHT22;6359;51.450;7.346;2022-12-11T13:02:57;1.30;99.90
12588;DHT22;6359;51.450;7.346;2022-12-11T13:05:26;1.40;99.90
12588;DHT22;6359;51.450;7.346;2022-12-11T13:07:57;1.50;99.90
12588;DHT22;6359;51.450;7.346;2022-12-11T13:10:29;2.60;99.90
12588;DHT22;6359;51.450;7.346;2022-12-11T13:12:57;1.50;99.90
12588;DHT22;6359;51.450;7.346;2022-12-11T13:15:26;1.50;99.90
12588;DHT22;6359;51.450;7.346;2022-12-11T13:17:55;1.40;99.90
12588;DHT22;6359;51.450;7.346;2022-12-11T13:20:24;1.40;99.90
12588;DHT22;6359;51.450;7.346;2022-12-11T13:23:16;1.40;99.90
12588;DHT22;6359;51.450;7.346;2022-12-11T13:25:52;1.50;99.90
12588;DHT22;6359;51.450;7.346;2022-12-11T13:28:24;3.30;99.90
12588;DHT22;6359;51.450;7.346;2022-12-11T13:31:00;1.40;99.90
12588;DHT22;6359;51.450;7.346;2022-12-11T13:33:28;1.30;99.90
12588;DHT22;6359;51.450;7.346;2022-12-11T13:36:10;1.40;99.90
12588;DHT22;6359;51.450;7.346;2022-12-11T13:38:46;1.50;99.90
12588;DHT22;6359;51.450;7.346;2022-12-11T13:41:14;1.50;99.90
12588;DHT22;6359;51.450;7.346;2022-12-11T13:43:46;1.50;99.90
12588;DHT22;6359;51.450;7.346;2022-12-11T13:46:14;1.60;99.90
12588;DHT22;6359;51.450;7.346;2022-12-11T13:48:47;1.60;99.90
12588;DHT22;6359;51.450;7.346;2022-12-11T13:51:17;1.70;99.90
12588;DHT22;6359;51.450;7.346;2022-12-11T13:53:46;1.70;99.90
12588;DHT22;6359;51.450;7.346;2022-12-11T13:56:17;1.50;99.90
12588;DHT22;6359;51.450;7.346;2022-12-11T13:58:44;1.50;99.90
12588;DHT22;6359;51.450;7.346;2022-12-11T14:01:14;1.70;99.90
12588;DHT22;6359;51.450;7.346;2022-12-11T14:03:47;1.60;99.90
12588;DHT22;6359;51.450;7.346;2022-12-11T14:06:17;1.80;99.90
12588;DHT22;6359;51.450;7.346;2022-12-11T14:08:49;1.70;99.90
12588;DHT22;6359;51.450;7.346;2022-12-11T14:11:20;1.90;99.90
12588;DHT22;6359;51.450;7.346;2022-12-11T14:13:48;1.80;99.90
12588;DHT22;6359;51.450;7.346;2022-12-11T14:16:20;1.80;99.90
12588;DHT22;6359;51.450;7.346;2022-12-11T14:18:48;1.70;99.90
12588;DHT22;6359;51.450;7.346;2022-12-11T14:21:20;1.50;99.90
12588;DHT22;6359;51.450;7.346;2022-12-11T14:23:53;1.80;99.90
12588;DHT22;6359;51.450;7.346;2022-12-11T14:26:23;1.60;99.90
12588;DHT22;6359;51.450;7.346;2022-12-11T14:28:50;1.50;99.90
12588;DHT22;6359;51.450;7.346;2022-12-11T14:31:24;1.30;99.90
12588;DHT22;6359;51.450;7.346;2022-12-11T14:33:54;1.50;99.90
12588;DHT22;6359;51.450;7.346;2022-12-11T14:36:22;1.40;99.90
12588;DHT22;6359;51.450;7.346;2022-12-11T14:38:54;1.30;99.90
12588;DHT22;6359;51.450;7.346;2022-12-11T14:41:28;1.30;99.90
12588;DHT22;6359;51.450;7.346;2022-12-11T14:43:58;1.40;99.90
12588;DHT22;6359;51.450;7.346;2022-12-11T14:46:30;1.40;99.90
12588;DHT22;6359;51.450;7.346;2022-12-11T14:49:02;1.80;99.90
12588;DHT22;6359;51.450;7.346;2022-12-11T14:51:36;1.30;99.90
12588;DHT22;6359;51.450;7.346;2022-12-11T14:54:10;1.30;99.90
12588;DHT22;6359;51.450;7.346;2022-12-11T14:56:40;1.30;99.90
12588;DHT22;6359;51.450;7.346;2022-12-11T14:59:16;1.20;99.90
12588;DHT22;6359;51.450;7.346;2022-12-11T15:01:56;1.20;99.90
12588;DHT22;6359;51.450;7.346;2022-12-11T15:04:26;1.20;99.90
12588;DHT22;6359;51.450;7.346;2022-12-11T15:06:54;1.20;99.90
12588;DHT22;6359;51.450;7.346;2022-12-11T15:09:25;1.20;99.90
12588;DHT22;6359;51.450;7.346;2022-12-11T15:11:54;1.40;99.90
12588;DHT22;6359;51.450;7.346;2022-12-11T15:14:23;1.10;99.90
12588;DHT22;6359;51.450;7.346;2022-12-11T15:16:52;1.30;99.90
12588;DHT22;6359;51.450;7.346;2022-12-11T15:19:22;1.20;99.90
12588;DHT22;6359;51.450;7.346;2022-12-11T15:21:50;1.20;99.90
12588;DHT22;6359;51.450;7.346;2022-12-11T15:24:26;1.30;99.90
12588;DHT22;6359;51.450;7.346;2022-12-11T15:26:57;1.20;99.90
12588;DHT22;6359;51.450;7.346;2022-12-11T15:29:31;1.10;99.90
12588;DHT22;6359;51.450;7.346;2022-12-11T15:32:00;1.00;99.90
12588;DHT22;6359;51.450;7.346;2022-12-11T15:34:31;1.00;99.90
12588;DHT22;6359;51.450;7.346;2022-12-11T15:36:59;2.20;99.90
12588;DHT22;6359;51.450;7.346;2022-12-11T15:39:27;1.20;99.90
12588;DHT22;6359;51.450;7.346;2022-12-11T15:41:54;1.20;99.90
12588;DHT22;6359;51.450;7.346;2022-12-11T15:44:21;1.00;99.90
12588;DHT22;6359;51.450;7.346;2022-12-11T15:46:49;1.10;99.90
12588;DHT22;6359;51.450;7.346;2022-12-11T15:49:16;1.30;99.90
12588;DHT22;6359;51.450;7.346;2022-12-11T15:51:48;1.00;99.90
12588;DHT22;6359;51.450;7.346;2022-12-11T15:54:15;1.10;99.90
12588;DHT22;6359;51.450;7.346;2022-12-11T15:56:44;1.40;99.90
12588;DHT22;6359;51.450;7.346;2022-12-11T15:59:11;1.20;99.90
12588;DHT22;6359;51.450;7.346;2022-12-11T16:01:38;1.20;99.90
12588;DHT22;6359;51.450;7.346;2022-12-11T16:04:05;1.10;99.90
12588;DHT22;6359;51.450;7.346;2022-12-11T16:06:33;1.10;99.90
12588;DHT22;6359;51.450;7.346;2022-12-11T16:09:00;1.30;99.90
12588;DHT22;6359;51.450;7.346;2022-12-11T16:11:29;1.00;99.90
12588;DHT22;6359;51.450;7.346;2022-12-11T16:13:57;0.70;99.90
12588;DHT22;6359;51.450;7.346;2022-12-11T16:16:28;1.10;99.90
12588;DHT22;6359;51.450;7.346;2022-12-11T16:18:55;1.10;99.90
12588;DHT22;6359;51.450;7.346;2022-12-11T16:21:22;1.20;99.90
12588;DHT22;6359;51.450;7.346;2022-12-11T16:23:50;1.30;99.90
12588;DHT22;6359;51.450;7.346;2022-12-11T16:26:17;1.00;99.90
12588;DHT22;6359;51.450;7.346;2022-12-11T16:28:45;1.10;99.90
12588;DHT22;6359;51.450;7.346;2022-12-11T16:31:14;1.10;99.90
12588;DHT22;6359;51.450;7.346;2022-12-11T16:33:42;1.00;99.90
12588;DHT22;6359;51.450;7.346;2022-12-11T16:36:13;1.10;99.90
12588;DHT22;6359;51.450;7.346;2022-12-11T16:38:40;1.30;99.90
12588;DHT22;6359;51.450;7.346;2022-12-11T16:41:07;0.80;99.90
12588;DHT22;6359;51.450;7.346;2022-12-11T16:43:36;1.10;99.90
12588;DHT22;6359;51.450;7.346;2022-12-11T16:46:04;-1.40;99.90
12588;DHT22;6359;51.450;7.346;2022-12-11T16:48:32;1.20;99.90
12588;DHT22;6359;51.450;7.346;2022-12-11T16:50:59;1.00;99.90
12588;DHT22;6359;51.450;7.346;2022-12-11T16:53:26;3.00;99.90
12588;DHT22;6359;51.450;7.346;2022-12-11T16:55:54;0.90;99.90
12588;DHT22;6359;51.450;7.346;2022-12-11T16:58:21;0.80;99.90
12588;DHT22;6359;51.450;7.346;2022-12-11T17:00:48;1.10;99.90
12588;DHT22;6359;51.450;7.346;2022-12-11T17:03:15;1.40;99.90
12588;DHT22;6359;51.450;7.346;2022-12-11T17:05:44;1.00;99.90
12588;DHT22;6359;51.450;7.346;2022-12-11T17:08:11;1.00;99.90
12588;DHT22;6359;51.450;7.346;2022-12-11T17:10:40;0.80;99.90
12588;DHT22;6359;51.450;7.346;2022-12-11T17:13:07;0.90;99.90
12588;DHT22;6359;51.450;7.346;2022-12-11T17:15:39;1.00;99.90
12588;DHT22;6359;51.450;7.346;2022-12-11T17:20:33;1.30;99.90
12588;DHT22;6359;51.450;7.346;2022-12-11T17:23:01;1.10;99.90
12588;DHT22;6359;51.450;7.346;2022-12-11T17:25:28;1.10;99.90
12588;DHT22;6359;51.450;7.346;2022-12-11T17:27:55;1.00;99.90
12588;DHT22;6359;51.450;7.346;2022-12-11T17:30:22;1.00;99.90
12588;DHT22;6359;51.450;7.346;2022-12-11T17:32:49;0.90;99.90
12588;DHT22;6359;51.450;7.346;2022-12-11T17:35:16;1.00;99.90
12588;DHT22;6359;51.450;7.346;2022-12-11T17:37:43;1.10;99.90
12588;DHT22;6359;51.450;7.346;2022-12-11T17:40:12;0.80;99.90
12588;DHT22;6359;51.450;7.346;2022-12-11T17:42:38;1.10;99.90
12588;DHT22;6359;51.450;7.346;2022-12-11T17:45:08;1.10;99.90
12588;DHT22;6359;51.450;7.346;2022-12-11T17:47:35;1.00;99.90
12588;DHT22;6359;51.450;7.346;2022-12-11T17:50:02;1.00;99.90
12588;DHT22;6359;51.450;7.346;2022-12-11T17:52:29;1.10;99.90
12588;DHT22;6359;51.450;7.346;2022-12-11T17:54:57;1.00;99.90
12588;DHT22;6359;51.450;7.346;2022-12-11T17:57:25;1.00;99.90
12588;DHT22;6359;51.450;7.346;2022-12-11T17:59:53;0.80;99.90
12588;DHT22;6359;51.450;7.346;2022-12-11T18:02:20;0.80;99.90
12588;DHT22;6359;51.450;7.346;2022-12-11T18:04:47;0.90;99.90
12588;DHT22;6359;51.450;7.346;2022-12-11T18:07:14;1.20;99.90
12588;DHT22;6359;51.450;7.346;2022-12-11T18:09:43;0.90;99.90
12588;DHT22;6359;51.450;7.346;2022-12-11T18:12:10;0.90;99.90
12588;DHT22;6359;51.450;7.346;2022-12-11T18:14:38;1.00;99.90
12588;DHT22;6359;51.450;7.346;2022-12-11T18:17:05;1.00;99.90
12588;DHT22;6359;51.450;7.346;2022-12-11T18:19:31;1.10;99.90
12588;DHT22;6359;51.450;7.346;2022-12-11T18:21:58;1.00;99.90
12588;DHT22;6359;51.450;7.346;2022-12-11T18:24:25;0.70;99.90
12588;DHT22;6359;51.450;7.346;2022-12-11T18:26:56;1.50;99.90
12588;DHT22;6359;51.450;7.346;2022-12-11T18:29:23;0.90;99.90
12588;DHT22;6359;51.450;7.346;2022-12-11T18:31:52;1.00;99.90
12588;DHT22;6359;51.450;7.346;2022-12-11T18:34:19;0.80;99.90
12588;DHT22;6359;51.450;7.346;2022-12-11T18:36:46;0.90;99.90
12588;DHT22;6359;51.450;7.346;2022-12-11T18:39:13;0.90;99.90
12588;DHT22;6359;51.450;7.346;2022-12-11T18:41:40;0.80;99.90
12588;DHT22;6359;51.450;7.346;2022-12-11T18:44:06;0.80;99.90
12588;DHT22;6359;51.450;7.346;2022-12-11T18:46:33;1.00;99.90
12588;DHT22;6359;51.450;7.346;2022-12-11T18:49:02;0.70;99.90
12588;DHT22;6359;51.450;7.346;2022-12-11T18:51:28;0.90;99.90
12588;DHT22;6359;51.450;7.346;2022-12-11T18:53:55;1.00;99.90
12588;DHT22;6359;51.450;7.346;2022-12-11T18:56:22;0.90;99.90
12588;DHT22;6359;51.450;7.346;2022-12-11T18:58:49;0.80;99.90
12588;DHT22;6359;51.450;7.346;2022-12-11T19:01:18;0.90;99.90
12588;DHT22;6359;51.450;7.346;2022-12-11T19:03:46;0.80;99.90
12588;DHT22;6359;51.450;7.346;2022-12-11T19:06:16;0.80;99.90
12588;DHT22;6359;51.450;7.346;2022-12-11T19:08:44;0.70;99.90
12588;DHT22;6359;51.450;7.346;2022-12-11T19:11:13;0.60;99.90
12588;DHT22;6359;51.450;7.346;2022-12-11T19:13:40;0.80;99.90
12588;DHT22;6359;51.450;7.346;2022-12-11T19:16:09;0.90;99.90
12588;DHT22;6359;51.450;7.346;2022-12-11T19:18:39;0.80;99.90
12588;DHT22;6359;51.450;7.346;2022-12-11T19:21:08;1.00;99.90
12588;DHT22;6359;51.450;7.346;2022-12-11T19:23:36;0.80;99.90
12588;DHT22;6359;51.450;7.346;2022-12-11T19:26:03;0.80;99.90
12588;DHT22;6359;51.450;7.346;2022-12-11T19:28:32;0.80;99.90
12588;DHT22;6359;51.450;7.346;2022-12-11T19:30:59;0.90;99.90
12588;DHT22;6359;51.450;7.346;2022-12-11T19:33:26;0.80;99.90
12588;DHT22;6359;51.450;7.346;2022-12-11T19:36:00;0.70;99.90
12588;DHT22;6359;51.450;7.346;2022-12-11T19:38:27;0.80;99.90
12588;DHT22;6359;51.450;7.346;2022-12-11T19:40:55;0.90;99.90
12588;DHT22;6359;51.450;7.346;2022-12-11T19:43:22;0.70;99.90
12588;DHT22;6359;51.450;7.346;2022-12-11T19:45:49;0.90;99.90
12588;DHT22;6359;51.450;7.346;2022-12-11T19:48:16;0.90;99.90
12588;DHT22;6359;51.450;7.346;2022-12-11T19:50:43;1.00;99.90
12588;DHT22;6359;51.450;7.346;2022-12-11T19:53:10;0.90;99.90
12588;DHT22;6359;51.450;7.346;2022-12-11T19:55:37;0.80;99.90
12588;DHT22;6359;51.450;7.346;2022-12-11T19:58:05;0.80;99.90
12588;DHT22;6359;51.450;7.346;2022-12-11T20:00:32;0.90;99.90
12588;DHT22;6359;51.450;7.346;2022-12-11T20:02:58;0.90;99.90
12588;DHT22;6359;51.450;7.346;2022-12-11T20:05:25;1.10;99.90
12588;DHT22;6359;51.450;7.346;2022-12-11T20:07:52;1.00;99.90
12588;DHT22;6359;51.450;7.346;2022-12-11T20:10:19;1.00;99.90
12588;DHT22;6359;51.450;7.346;2022-12-11T20:12:46;0.90;99.90
12588;DHT22;6359;51.450;7.346;2022-12-11T20:15:14;0.90;99.90
12588;DHT22;6359;51.450;7.346;2022-12-11T20:17:44;0.80;99.90
12588;DHT22;6359;51.450;7.346;2022-12-11T20:20:11;0.90;99.90